createdAt,value
2023-01-13T00:01:27.172Z,2.59
2023-01-13T00:04:29.361Z,2.50
2023-01-13T00:07:31.583Z,2.41
2023-01-13T00:10:34.634Z,2.23
2023-01-13T00:13:38.512Z,2.20
2023-01-13T00:16:40.622Z,2.16
2023-01-13T00:19:42.830Z,2.18
2023-01-13T00:22:44.985Z,2.11
2023-01-13T00:25:47.118Z,2.28
2023-01-13T00:28:49.642Z,2.41
2023-01-13T00:31:51.892Z,2.39
2023-01-13T00:34:54.345Z,2.36
2023-01-13T00:37:56.537Z,2.31
2023-01-13T00:40:59.271Z,2.31
2023-01-13T00:44:01.424Z,2.42
2023-01-13T00:47:03.696Z,2.42
2023-01-13T00:50:06.292Z,2.40
2023-01-13T00:53:08.495Z,2.28
2023-01-13T00:56:39.029Z,2.24
2023-01-13T00:59:42.140Z,2.27
2023-01-13T01:02:44.404Z,2.29
2023-01-13T01:05:46.639Z,2.12
2023-01-13T01:08:49.079Z,2.11
2023-01-13T01:11:51.265Z,2.17
2023-01-13T01:14:53.492Z,2.21
2023-01-13T01:17:55.645Z,2.30
2023-01-13T01:21:00.108Z,2.18
2023-01-13T01:24:03.769Z,2.22
2023-01-13T01:27:05.966Z,2.22
2023-01-13T01:30:09.063Z,2.06
2023-01-13T01:33:11.223Z,2.08
2023-01-13T01:36:15.685Z,2.01
2023-01-13T01:39:17.883Z,2.06
2023-01-13T01:42:38.734Z,2.10
2023-01-13T01:45:42.801Z,2.22
2023-01-13T01:48:44.975Z,2.24
2023-01-13T01:51:49.253Z,2.23
2023-01-13T01:54:55.446Z,2.24
2023-01-13T01:58:14.887Z,2.13
2023-01-13T02:01:17.426Z,2.17
2023-01-13T02:04:23.708Z,2.17
2023-01-13T02:07:31.601Z,2.17
2023-01-13T02:10:33.897Z,2.21
2023-01-13T02:13:36.129Z,2.22
2023-01-13T02:16:43.819Z,2.35
2023-01-13T02:19:51.815Z,2.29
2023-01-13T02:23:05.886Z,2.23
2023-01-13T02:26:10.820Z,2.28
2023-01-13T02:29:37.800Z,2.22
2023-01-13T02:32:49.234Z,2.14
2023-01-13T02:36:02.308Z,2.10
2023-01-13T02:39:16.317Z,2.20
2023-01-13T02:42:44.720Z,2.32
2023-01-13T02:45:53.109Z,2.37
2023-01-13T02:48:58.068Z,2.34
2023-01-13T02:52:27.570Z,2.42
2023-01-13T02:55:50.563Z,2.40
2023-01-13T02:58:54.211Z,2.36
2023-01-13T03:01:58.098Z,2.34
2023-01-13T03:05:00.628Z,2.34
2023-01-13T03:08:05.911Z,2.30
2023-01-13T03:11:15.063Z,2.31
2023-01-13T03:14:34.557Z,2.39
2023-01-13T03:17:50.067Z,2.35
2023-01-13T03:21:15.860Z,2.44
2023-01-13T03:24:27.593Z,2.39
2023-01-13T03:27:35.543Z,2.40
2023-01-13T03:30:43.673Z,2.47
2023-01-13T03:33:51.202Z,2.45
2023-01-13T03:36:54.648Z,2.48
2023-01-13T03:40:02.898Z,2.51
2023-01-13T03:43:29.592Z,2.50
2023-01-13T03:46:59.765Z,2.47
2023-01-13T03:50:20.038Z,2.53
2023-01-13T03:53:26.912Z,2.42
2023-01-13T03:56:42.807Z,2.42
2023-01-13T03:59:48.712Z,2.36
2023-01-13T04:02:57.851Z,2.42
2023-01-13T04:06:18.180Z,2.36
2023-01-13T04:09:45.844Z,2.36
2023-01-13T04:13:04.297Z,2.37
2023-01-13T04:16:07.616Z,2.33
2023-01-13T04:19:09.815Z,2.21
2023-01-13T04:22:12.012Z,2.15
2023-01-13T04:25:14.178Z,2.28
2023-01-13T04:28:17.287Z,2.28
2023-01-13T04:31:19.559Z,2.23
2023-01-13T04:34:22.006Z,2.18
2023-01-13T04:37:24.189Z,2.18
2023-01-13T04:40:26.385Z,2.22
2023-01-13T04:43:28.651Z,2.23
2023-01-13T04:46:30.865Z,2.26
2023-01-13T04:49:33.333Z,2.20
2023-01-13T04:52:35.542Z,2.31
2023-01-13T04:55:37.853Z,2.31
2023-01-13T04:58:40.081Z,2.27
2023-01-13T05:01:42.403Z,2.32
2023-01-13T05:04:44.718Z,2.20
2023-01-13T05:07:46.961Z,2.26
2023-01-13T05:10:49.167Z,2.13
2023-01-13T05:14:09.862Z,2.16
2023-01-13T05:17:20.733Z,2.11
2023-01-13T05:20:22.913Z,2.18
2023-01-13T05:23:43.680Z,2.21
2023-01-13T05:26:45.856Z,2.15
2023-01-13T05:29:48.043Z,2.10
2023-01-13T05:32:50.503Z,2.07
2023-01-13T05:35:52.689Z,2.14
2023-01-13T05:38:54.862Z,2.09
2023-01-13T05:42:15.484Z,2.00
2023-01-13T05:45:17.980Z,2.01
2023-01-13T05:48:21.934Z,2.09
2023-01-13T05:51:26.386Z,1.95
2023-01-13T05:54:28.627Z,1.83
2023-01-13T05:57:30.805Z,1.95
2023-01-13T06:00:33.161Z,2.05
2023-01-13T06:03:35.907Z,1.80
2023-01-13T06:06:38.131Z,1.80
2023-01-13T06:09:40.307Z,1.85
2023-01-13T06:12:42.604Z,1.98
2023-01-13T06:15:45.022Z,1.97
2023-01-13T06:18:47.265Z,1.95
2023-01-13T06:21:49.555Z,1.82
2023-01-13T06:24:53.800Z,1.95
2023-01-13T06:27:57.423Z,2.04
2023-01-13T06:31:01.361Z,2.12
2023-01-13T06:34:08.353Z,2.15
2023-01-13T06:37:12.867Z,1.97
2023-01-13T06:40:15.252Z,1.97
2023-01-13T06:43:17.939Z,2.02
2023-01-13T06:46:20.211Z,1.93
2023-01-13T06:49:22.398Z,2.03
2023-01-13T06:52:24.671Z,1.93
2023-01-13T06:55:26.928Z,1.86
2023-01-13T06:58:29.106Z,1.81
2023-01-13T07:01:31.350Z,1.82
2023-01-13T07:04:33.641Z,1.83
2023-01-13T07:07:35.850Z,1.82
2023-01-13T07:10:38.610Z,1.90
2023-01-13T07:13:59.116Z,2.02
2023-01-13T07:17:01.278Z,1.92
2023-01-13T07:20:03.721Z,1.99
2023-01-13T07:23:05.916Z,1.96
2023-01-13T07:26:09.317Z,1.83
2023-01-13T07:29:11.898Z,1.93
2023-01-13T07:32:15.437Z,1.95
2023-01-13T07:35:21.831Z,2.04
2023-01-13T07:38:24.143Z,2.04
2023-01-13T07:41:44.921Z,2.28
2023-01-13T07:44:47.088Z,2.22
2023-01-13T07:47:51.549Z,2.33
2023-01-13T07:50:54.703Z,2.52
2023-01-13T07:53:56.894Z,2.41
2023-01-13T07:56:59.064Z,2.50
2023-01-13T08:00:01.301Z,2.53
2023-01-13T08:03:03.550Z,2.66
2023-01-13T08:06:07.080Z,2.74
2023-01-13T08:09:09.609Z,2.80
2023-01-13T08:12:33.154Z,2.78
2023-01-13T08:15:35.329Z,2.94
2023-01-13T08:18:38.312Z,3.06
2023-01-13T08:21:40.543Z,2.99
2023-01-13T08:24:42.769Z,3.01
2023-01-13T08:27:44.994Z,3.12
2023-01-13T08:30:47.351Z,3.02
2023-01-13T08:33:49.584Z,3.00
2023-01-13T08:36:51.793Z,2.89
2023-01-13T08:39:54.005Z,2.95
2023-01-13T08:42:56.932Z,3.04
2023-01-13T08:46:01.597Z,3.07
2023-01-13T08:49:04.251Z,3.02
2023-01-13T08:52:06.718Z,2.92
2023-01-13T08:55:09.419Z,2.79
2023-01-13T08:58:15.872Z,2.91
2023-01-13T09:01:22.091Z,2.90
2023-01-13T09:04:27.602Z,2.96
2023-01-13T09:07:31.057Z,3.05
2023-01-13T09:10:33.737Z,3.18
2023-01-13T09:13:35.908Z,3.05
2023-01-13T09:16:38.075Z,2.88
2023-01-13T09:19:40.653Z,2.94
2023-01-13T09:22:42.824Z,3.18
2023-01-13T09:25:45.040Z,3.07
2023-01-13T09:28:47.582Z,2.98
2023-01-13T09:31:49.827Z,2.94
2023-01-13T09:35:00.660Z,3.04
2023-01-13T09:38:02.865Z,2.92
2023-01-13T09:41:25.053Z,2.88
2023-01-13T09:44:48.656Z,2.99
2023-01-13T09:47:59.882Z,2.71
2023-01-13T09:51:17.520Z,2.63
2023-01-13T09:54:34.267Z,2.69
2023-01-13T09:57:38.160Z,2.70
2023-01-13T10:01:10.937Z,2.80
2023-01-13T10:04:14.911Z,2.83
2023-01-13T10:07:17.309Z,2.76
2023-01-13T10:10:39.049Z,2.79
2023-01-13T10:13:41.624Z,2.57
2023-01-13T10:17:07.805Z,2.64
2023-01-13T10:20:30.392Z,2.56
2023-01-13T10:23:53.372Z,2.58
2023-01-13T10:27:01.067Z,2.57
2023-01-13T10:30:48.822Z,2.66
2023-01-13T10:34:01.478Z,2.74
2023-01-13T10:37:09.135Z,2.97
2023-01-13T10:40:16.567Z,3.04
2023-01-13T10:43:18.790Z,3.19
2023-01-13T10:46:21.089Z,3.36
2023-01-13T10:49:26.855Z,3.38
2023-01-13T10:52:31.411Z,3.47
2023-01-13T10:55:36.970Z,3.44
2023-01-13T10:58:39.131Z,3.42
2023-01-13T11:01:43.602Z,3.37
2023-01-13T11:04:59.497Z,3.57
2023-01-13T11:08:01.722Z,3.51
2023-01-13T11:11:03.965Z,3.45
2023-01-13T11:14:39.480Z,3.71
2023-01-13T11:17:47.671Z,3.80
2023-01-13T11:20:51.547Z,4.14
2023-01-13T11:24:11.509Z,4.41
2023-01-13T11:27:25.807Z,4.17
2023-01-13T11:30:42.971Z,4.11
2023-01-13T11:33:56.591Z,3.96
2023-01-13T11:37:01.023Z,4.02
2023-01-13T11:40:16.867Z,4.06
2023-01-13T11:43:19.027Z,4.03
2023-01-13T11:46:23.735Z,4.07
2023-01-13T11:49:28.656Z,3.95
2023-01-13T11:52:42.336Z,3.90
2023-01-13T11:55:56.145Z,3.75
2023-01-13T11:59:19.712Z,3.77
2023-01-13T12:02:51.538Z,3.88
2023-01-13T12:06:03.588Z,3.72
2023-01-13T12:09:18.022Z,3.69
2023-01-13T12:12:34.954Z,3.62
2023-01-13T12:15:49.315Z,3.60
2023-01-13T12:19:30.666Z,3.66
2023-01-13T12:22:35.359Z,3.47
2023-01-13T12:25:45.641Z,3.47
2023-01-13T12:28:58.377Z,3.36
2023-01-13T12:32:03.037Z,3.42
2023-01-13T12:35:28.199Z,3.46
2023-01-13T12:38:49.288Z,3.42
2023-01-13T12:42:25.455Z,3.46
2023-01-13T12:45:30.088Z,3.45
2023-01-13T12:48:57.106Z,3.41
2023-01-13T12:52:07.201Z,3.41
2023-01-13T12:55:13.916Z,3.42
2023-01-13T12:58:17.411Z,3.47
2023-01-13T13:01:35.404Z,3.48
2023-01-13T13:04:49.548Z,3.46
2023-01-13T13:08:01.758Z,3.29
2023-01-13T13:11:38.758Z,3.38
2023-01-13T13:14:40.879Z,3.52
2023-01-13T13:17:44.571Z,3.40
2023-01-13T13:21:04.726Z,3.44
2023-01-13T13:24:10.681Z,3.55
2023-01-13T13:27:21.602Z,3.46
2023-01-13T13:30:29.012Z,3.62
2023-01-13T13:33:43.810Z,3.69
2023-01-13T13:36:56.638Z,3.75
2023-01-13T13:40:24.179Z,3.63
2023-01-13T13:43:46.350Z,3.61
2023-01-13T13:46:50.405Z,3.66
2023-01-13T13:49:54.573Z,3.60
2023-01-13T13:53:05.199Z,3.76
2023-01-13T13:56:17.265Z,3.73
2023-01-13T13:59:33.682Z,3.75
2023-01-13T14:02:37.437Z,3.75
2023-01-13T14:05:39.709Z,3.83
2023-01-13T14:08:49.755Z,3.91
2023-01-13T14:12:19.348Z,3.82
2023-01-13T14:15:32.274Z,3.68
2023-01-13T14:18:45.940Z,3.69
2023-01-13T14:21:48.360Z,3.59
2023-01-13T14:24:57.665Z,3.58
2023-01-13T14:28:08.751Z,3.56
2023-01-13T14:31:11.118Z,3.54
2023-01-13T14:34:32.528Z,3.48
2023-01-13T14:37:37.941Z,3.47
2023-01-13T14:40:44.780Z,3.50
2023-01-13T14:43:51.114Z,3.49
2023-01-13T14:47:00.409Z,3.45
2023-01-13T14:50:27.780Z,3.48
2023-01-13T14:53:38.417Z,3.48
2023-01-13T14:56:49.126Z,3.49
2023-01-13T15:00:13.018Z,3.53
2023-01-13T15:03:16.952Z,3.35
2023-01-13T15:06:23.226Z,3.38
2023-01-13T15:09:40.303Z,3.53
2023-01-13T15:12:43.339Z,3.48
2023-01-13T15:15:50.030Z,3.56
2023-01-13T15:18:53.572Z,3.51
2023-01-13T15:21:55.781Z,3.36
2023-01-13T15:24:58.147Z,3.29
2023-01-13T15:28:00.434Z,3.32
2023-01-13T15:31:03.971Z,3.40
2023-01-13T15:34:06.323Z,3.45
2023-01-13T15:37:09.497Z,3.58
2023-01-13T15:40:15.150Z,3.65
2023-01-13T15:43:40.681Z,3.54
2023-01-13T15:46:42.955Z,3.54
2023-01-13T15:49:45.755Z,3.54
2023-01-13T15:52:47.895Z,3.71
2023-01-13T15:55:52.498Z,3.63
2023-01-13T15:58:55.141Z,3.64
2023-01-13T16:01:57.376Z,3.57
2023-01-13T16:04:59.549Z,3.49
2023-01-13T16:08:01.785Z,3.49
2023-01-13T16:11:04.094Z,3.52
2023-01-13T16:14:06.263Z,3.54
2023-01-13T16:17:19.975Z,3.56
2023-01-13T16:20:22.421Z,3.49
2023-01-13T16:23:24.610Z,3.59
2023-01-13T16:26:29.284Z,3.67
2023-01-13T16:29:31.427Z,3.64
2023-01-13T16:32:33.632Z,3.82
2023-01-13T16:35:35.834Z,3.77
2023-01-13T16:38:58.092Z,3.72
2023-01-13T16:42:00.381Z,3.76
2023-01-13T16:45:08.397Z,3.71
2023-01-13T16:48:19.355Z,3.68
2023-01-13T16:51:22.791Z,3.80
2023-01-13T16:54:24.943Z,3.77
2023-01-13T16:57:27.152Z,3.83
2023-01-13T17:00:29.824Z,3.75
2023-01-13T17:03:35.885Z,3.70
2023-01-13T17:06:53.132Z,3.70
2023-01-13T17:09:55.330Z,3.60
2023-01-13T17:13:00.066Z,3.52
2023-01-13T17:16:21.402Z,3.68
2023-01-13T17:19:24.157Z,3.67
2023-01-13T17:22:26.338Z,3.75
2023-01-13T17:25:28.501Z,3.65
2023-01-13T17:28:30.737Z,3.89
2023-01-13T17:31:34.633Z,3.71
2023-01-13T17:34:36.871Z,3.92
2023-01-13T17:37:39.072Z,3.88
2023-01-13T17:40:41.473Z,3.83
2023-01-13T17:43:43.883Z,3.78
2023-01-13T17:46:46.414Z,3.80
2023-01-13T17:49:48.778Z,3.96
2023-01-13T17:52:50.964Z,3.94
2023-01-13T17:55:55.142Z,3.90
2023-01-13T17:58:58.378Z,3.92
2023-01-13T18:02:00.673Z,3.75
2023-01-13T18:05:02.904Z,3.80
2023-01-13T18:08:05.316Z,4.00
2023-01-13T18:11:07.729Z,3.85
2023-01-13T18:14:10.369Z,3.99
2023-01-13T18:17:12.586Z,3.92
2023-01-13T18:20:42.404Z,4.00
2023-01-13T18:24:03.450Z,4.14
2023-01-13T18:27:24.188Z,4.03
2023-01-13T18:30:26.638Z,4.15
2023-01-13T18:33:29.072Z,4.25
2023-01-13T18:36:31.310Z,4.10
2023-01-13T18:39:33.985Z,4.14
2023-01-13T18:42:52.240Z,4.21
2023-01-13T18:45:54.507Z,4.21
2023-01-13T18:48:56.844Z,4.12
2023-01-13T18:51:59.080Z,4.10
2023-01-13T18:55:01.286Z,4.11
2023-01-13T18:58:03.578Z,4.34
2023-01-13T19:01:06.895Z,4.33
2023-01-13T19:04:15.822Z,4.46
2023-01-13T19:07:25.791Z,4.47
2023-01-13T19:10:31.824Z,4.47
2023-01-13T19:13:37.531Z,4.44
2023-01-13T19:16:39.996Z,4.46
2023-01-13T19:19:44.564Z,4.43
2023-01-13T19:22:53.732Z,4.40
2023-01-13T19:25:59.645Z,4.36
2023-01-13T19:29:01.800Z,4.23
2023-01-13T19:32:04.070Z,4.32
2023-01-13T19:35:07.292Z,4.32
2023-01-13T19:38:09.514Z,4.31
2023-01-13T19:41:31.675Z,4.31
2023-01-13T19:44:52.981Z,4.09
2023-01-13T19:47:57.104Z,4.13
2023-01-13T19:51:00.122Z,4.16
2023-01-13T19:54:02.518Z,4.17
2023-01-13T19:57:07.728Z,4.14
2023-01-13T20:00:11.417Z,4.18
2023-01-13T20:03:15.095Z,4.14
2023-01-13T20:06:17.255Z,4.15
2023-01-13T20:09:19.482Z,4.18
2023-01-13T20:12:21.795Z,4.12
2023-01-13T20:15:25.412Z,4.16
2023-01-13T20:18:32.547Z,4.24
2023-01-13T20:21:34.802Z,4.23
2023-01-13T20:24:37.132Z,4.24
2023-01-13T20:27:39.420Z,4.25
2023-01-13T20:30:41.735Z,4.31
2023-01-13T20:33:44.270Z,4.37
2023-01-13T20:36:47.972Z,4.41
2023-01-13T20:39:50.353Z,4.43
2023-01-13T20:42:52.798Z,4.41
2023-01-13T20:45:55.483Z,4.29
2023-01-13T20:48:57.698Z,4.32
2023-01-13T20:51:59.939Z,4.34
2023-01-13T20:55:02.249Z,4.23
2023-01-13T20:58:04.502Z,4.17
2023-01-13T21:01:07.122Z,4.16
2023-01-13T21:04:09.770Z,4.25
2023-01-13T21:07:12.028Z,4.49
2023-01-13T21:10:14.241Z,4.56
2023-01-13T21:13:35.000Z,4.58
2023-01-13T21:16:37.229Z,4.64
2023-01-13T21:19:39.424Z,4.80
2023-01-13T21:22:48.920Z,4.71
2023-01-13T21:25:51.071Z,4.72
2023-01-13T21:28:58.058Z,4.70
2023-01-13T21:32:00.316Z,4.71
2023-01-13T21:35:02.500Z,4.68
2023-01-13T21:38:04.673Z,4.72
2023-01-13T21:41:08.401Z,4.76
2023-01-13T21:44:37.681Z,4.71
2023-01-13T21:47:49.187Z,4.68
2023-01-13T21:50:52.877Z,4.61
2023-01-13T21:53:55.528Z,4.68
2023-01-13T21:56:57.693Z,4.58
2023-01-13T22:00:01.922Z,4.50
2023-01-13T22:03:05.350Z,4.35
2023-01-13T22:06:07.603Z,4.35
2023-01-13T22:09:12.786Z,4.50
2023-01-13T22:12:17.830Z,4.42
2023-01-13T22:15:20.546Z,4.39
2023-01-13T22:18:23.177Z,4.37
2023-01-13T22:21:25.794Z,4.34
2023-01-13T22:24:31.249Z,4.34
2023-01-13T22:27:39.220Z,4.19
2023-01-13T22:30:41.525Z,4.13
2023-01-13T22:33:47.068Z,4.16
2023-01-13T22:36:49.504Z,4.12
2023-01-13T22:39:51.671Z,4.17
2023-01-13T22:42:53.832Z,4.21
2023-01-13T22:46:06.941Z,4.10
2023-01-13T22:49:09.553Z,4.12
2023-01-13T22:52:11.691Z,3.83
2023-01-13T22:55:13.874Z,3.81
2023-01-13T22:58:16.059Z,3.78
2023-01-13T23:01:18.308Z,3.86
2023-01-13T23:04:20.627Z,3.97
2023-01-13T23:07:22.891Z,4.13
2023-01-13T23:10:25.071Z,4.18
2023-01-13T23:13:27.255Z,4.28
2023-01-13T23:16:31.108Z,4.25
2023-01-13T23:19:33.439Z,4.24
2023-01-13T23:22:38.603Z,4.09
2023-01-13T23:25:48.960Z,4.06
2023-01-13T23:28:51.284Z,4.04
2023-01-13T23:31:53.520Z,4.15
2023-01-13T23:34:55.739Z,4.14
2023-01-13T23:37:57.907Z,4.07
2023-01-13T23:41:00.309Z,3.94
2023-01-13T23:44:02.476Z,4.03
2023-01-13T23:47:04.691Z,3.98
2023-01-13T23:50:07.065Z,3.97
2023-01-13T23:53:09.641Z,4.00
2023-01-13T23:56:15.086Z,4.02
2023-01-13T23:59:17.259Z,3.86
